createdAt,value
2023-02-16T00:00:58.468Z,59.90
2023-02-16T00:02:31.695Z,59.90
2023-02-16T00:04:18.814Z,59.80
2023-02-16T00:05:52.394Z,59.90
2023-02-16T00:07:25.566Z,59.80
2023-02-16T00:08:59.045Z,59.70
2023-02-16T00:10:35.236Z,59.30
2023-02-16T00:12:37.825Z,59.70
2023-02-16T00:14:13.582Z,59.70
2023-02-16T00:15:46.240Z,59.70
2023-02-16T00:17:19.450Z,59.70
2023-02-16T00:18:52.816Z,59.60
2023-02-16T00:20:26.977Z,59.70
2023-02-16T00:22:02.216Z,59.70
2023-02-16T00:23:34.370Z,60.50
2023-02-16T00:25:10.687Z,59.80
2023-02-16T00:26:46.489Z,59.90
2023-02-16T00:28:22.150Z,60.00
2023-02-16T00:29:55.305Z,60.10
2023-02-16T00:31:33.005Z,60.20
2023-02-16T00:33:15.045Z,60.40
2023-02-16T00:34:48.329Z,60.60
2023-02-16T00:36:21.938Z,60.50
2023-02-16T00:37:56.449Z,60.60
2023-02-16T00:39:30.680Z,60.50
2023-02-16T00:41:05.633Z,60.40
2023-02-16T00:42:40.864Z,60.20
2023-02-16T00:44:19.140Z,60.00
2023-02-16T00:45:52.940Z,59.90
2023-02-16T00:47:35.193Z,59.80
2023-02-16T00:49:14.701Z,60.40
2023-02-16T00:50:48.078Z,59.70
2023-02-16T00:52:36.245Z,59.60
2023-02-16T00:54:08.430Z,59.50
2023-02-16T00:55:44.605Z,59.40
2023-02-16T00:57:19.037Z,59.50
2023-02-16T00:58:54.683Z,59.50
2023-02-16T01:00:32.749Z,59.60
2023-02-16T01:02:06.203Z,59.70
2023-02-16T01:03:40.017Z,59.50
2023-02-16T01:05:14.182Z,59.60
2023-02-16T01:07:05.430Z,59.70
2023-02-16T01:08:56.291Z,59.90
2023-02-16T01:10:56.012Z,60.00
2023-02-16T01:12:29.890Z,60.20
2023-02-16T01:14:06.640Z,60.20
2023-02-16T01:15:40.671Z,60.20
2023-02-16T01:17:13.893Z,60.20
2023-02-16T01:18:47.187Z,60.30
2023-02-16T01:20:24.122Z,60.50
2023-02-16T01:21:57.462Z,60.50
2023-02-16T01:23:34.573Z,60.40
2023-02-16T01:25:08.533Z,60.40
2023-02-16T01:26:47.247Z,60.50
2023-02-16T01:28:25.445Z,60.50
2023-02-16T01:29:58.996Z,60.60
2023-02-16T01:31:32.594Z,60.50
2023-02-16T01:33:09.706Z,60.40
2023-02-16T01:34:42.235Z,60.60
2023-02-16T01:36:24.849Z,60.60
2023-02-16T01:37:58.180Z,60.80
2023-02-16T01:39:31.382Z,60.80
2023-02-16T01:41:23.466Z,60.70
2023-02-16T01:43:03.309Z,60.90
2023-02-16T01:44:43.829Z,60.80
2023-02-16T01:46:26.502Z,60.80
2023-02-16T01:48:04.527Z,61.70
2023-02-16T01:49:38.021Z,60.80
2023-02-16T01:51:20.354Z,60.70
2023-02-16T01:53:00.477Z,60.80
2023-02-16T01:54:41.984Z,60.80
2023-02-16T01:56:32.101Z,60.80
2023-02-16T01:58:15.972Z,60.60
2023-02-16T02:00:16.289Z,60.60
2023-02-16T02:01:56.662Z,60.60
2023-02-16T02:03:52.217Z,60.40
2023-02-16T02:05:35.095Z,60.30
2023-02-16T02:07:11.658Z,60.30
2023-02-16T02:08:52.294Z,60.30
2023-02-16T02:10:34.866Z,60.30
2023-02-16T02:12:23.199Z,60.40
2023-02-16T02:14:03.915Z,60.40
2023-02-16T02:15:37.289Z,60.50
2023-02-16T02:17:19.494Z,61.10
2023-02-16T02:18:53.657Z,60.50
2023-02-16T02:20:53.494Z,60.40
2023-02-16T02:23:32.119Z,60.50
2023-02-16T02:25:47.463Z,60.70
2023-02-16T02:27:26.122Z,60.50
2023-02-16T02:29:19.084Z,61.30
2023-02-16T02:31:02.700Z,60.50
2023-02-16T02:32:56.880Z,60.40
2023-02-16T02:34:55.424Z,60.50
2023-02-16T02:36:37.645Z,60.40
2023-02-16T02:38:17.772Z,60.50
2023-02-16T02:40:00.548Z,60.60
2023-02-16T02:42:01.409Z,60.60
2023-02-16T02:43:42.407Z,60.60
2023-02-16T02:45:24.324Z,60.50
2023-02-16T02:46:57.572Z,60.40
2023-02-16T02:48:32.761Z,60.20
2023-02-16T02:50:38.410Z,60.30
2023-02-16T02:52:12.771Z,60.30
2023-02-16T02:54:12.032Z,60.20
2023-02-16T02:56:11.017Z,60.30
2023-02-16T02:58:07.875Z,60.30
2023-02-16T03:00:06.561Z,60.30
2023-02-16T03:01:47.705Z,60.40
2023-02-16T03:03:25.072Z,60.40
2023-02-16T03:05:00.391Z,60.60
2023-02-16T03:06:38.553Z,60.30
2023-02-16T03:08:15.688Z,60.30
2023-02-16T03:10:09.264Z,60.40
2023-02-16T03:12:02.156Z,60.40
2023-02-16T03:13:40.097Z,60.50
2023-02-16T03:15:17.258Z,60.40
2023-02-16T03:17:13.162Z,60.30
2023-02-16T03:19:06.715Z,60.30
2023-02-16T03:20:58.905Z,60.30
2023-02-16T03:22:52.822Z,60.20
2023-02-16T03:24:47.741Z,60.30
2023-02-16T03:26:42.653Z,60.40
2023-02-16T03:28:38.305Z,60.30
2023-02-16T03:30:16.327Z,61.20
2023-02-16T03:31:51.508Z,60.40
2023-02-16T03:33:26.189Z,60.30
2023-02-16T03:34:59.528Z,60.70
2023-02-16T03:36:36.928Z,60.30
2023-02-16T03:38:10.330Z,60.30
2023-02-16T03:39:58.392Z,60.20
2023-02-16T03:41:36.134Z,60.20
2023-02-16T03:43:10.390Z,60.20
2023-02-16T03:44:43.627Z,60.20
2023-02-16T03:46:18.403Z,60.20
2023-02-16T03:47:54.031Z,60.20
2023-02-16T03:49:27.302Z,60.20
2023-02-16T03:50:59.505Z,60.20
2023-02-16T03:52:32.621Z,60.20
2023-02-16T03:54:05.738Z,60.20
2023-02-16T03:55:42.369Z,60.20
2023-02-16T03:57:16.925Z,60.30
2023-02-16T03:58:50.062Z,60.30
2023-02-16T04:00:23.360Z,60.20
2023-02-16T04:01:58.180Z,60.20
2023-02-16T04:03:31.530Z,60.10
2023-02-16T04:05:05.157Z,60.20
2023-02-16T04:06:38.431Z,60.20
2023-02-16T04:08:14.061Z,60.20
2023-02-16T04:09:47.256Z,60.30
2023-02-16T04:11:38.354Z,60.30
2023-02-16T04:13:11.892Z,60.40
2023-02-16T04:14:44.120Z,60.40
2023-02-16T04:16:17.710Z,60.40
2023-02-16T04:17:52.257Z,60.30
2023-02-16T04:19:25.475Z,60.40
2023-02-16T04:20:58.739Z,61.20
2023-02-16T04:22:32.219Z,60.40
2023-02-16T04:24:10.121Z,60.40
2023-02-16T04:25:43.447Z,60.40
2023-02-16T04:27:15.742Z,60.20
2023-02-16T04:29:00.674Z,60.30
2023-02-16T04:30:34.427Z,60.20
2023-02-16T04:32:10.917Z,59.90
2023-02-16T04:33:45.586Z,59.80
2023-02-16T04:35:22.683Z,60.40
2023-02-16T04:36:55.903Z,60.50
2023-02-16T04:38:29.301Z,60.50
2023-02-16T04:40:02.798Z,60.40
2023-02-16T04:41:36.046Z,60.40
2023-02-16T04:43:09.283Z,60.40
2023-02-16T04:44:43.664Z,60.50
2023-02-16T04:46:16.966Z,60.50
2023-02-16T04:47:50.197Z,60.50
2023-02-16T04:49:24.665Z,60.40
2023-02-16T04:50:57.832Z,60.50
2023-02-16T04:52:31.038Z,60.40
2023-02-16T04:54:04.279Z,60.40
2023-02-16T04:55:36.482Z,60.40
2023-02-16T04:57:10.733Z,60.30
2023-02-16T04:58:44.110Z,60.30
2023-02-16T05:00:18.240Z,60.50
2023-02-16T05:01:51.746Z,60.30
2023-02-16T05:03:23.979Z,60.30
2023-02-16T05:04:58.469Z,60.20
2023-02-16T05:06:32.195Z,60.10
2023-02-16T05:08:05.685Z,60.10
2023-02-16T05:09:39.266Z,60.20
2023-02-16T05:11:30.755Z,60.20
2023-02-16T05:13:30.406Z,60.20
2023-02-16T05:15:03.732Z,60.20
2023-02-16T05:16:36.938Z,60.20
2023-02-16T05:18:10.299Z,60.20
2023-02-16T05:19:46.309Z,60.20
2023-02-16T05:21:32.459Z,60.30
2023-02-16T05:23:07.389Z,60.20
2023-02-16T05:24:39.892Z,60.20
2023-02-16T05:26:13.005Z,60.20
2023-02-16T05:27:46.184Z,60.30
2023-02-16T05:29:19.579Z,60.40
2023-02-16T05:30:55.023Z,60.50
2023-02-16T05:32:28.458Z,60.60
2023-02-16T05:34:01.926Z,60.60
2023-02-16T05:35:35.701Z,60.60
2023-02-16T05:37:10.436Z,60.60
2023-02-16T05:38:43.858Z,60.60
2023-02-16T05:40:17.309Z,60.60
2023-02-16T05:41:50.716Z,60.70
2023-02-16T05:43:25.238Z,61.60
2023-02-16T05:44:58.483Z,60.90
2023-02-16T05:46:34.860Z,61.00
2023-02-16T05:48:08.345Z,61.20
2023-02-16T05:49:41.504Z,61.10
2023-02-16T05:51:14.690Z,61.10
2023-02-16T05:52:49.248Z,61.00
2023-02-16T05:54:22.553Z,60.90
2023-02-16T05:55:54.711Z,60.80
2023-02-16T05:57:28.113Z,60.70
2023-02-16T05:59:01.721Z,60.80
2023-02-16T06:00:35.818Z,60.70
2023-02-16T06:02:09.779Z,60.70
2023-02-16T06:03:43.254Z,60.70
2023-02-16T06:05:16.628Z,60.80
2023-02-16T06:06:50.593Z,60.90
2023-02-16T06:08:25.328Z,61.00
2023-02-16T06:09:58.461Z,61.10
2023-02-16T06:11:36.559Z,61.10
2023-02-16T06:13:09.880Z,61.10
2023-02-16T06:14:43.228Z,61.10
2023-02-16T06:16:16.436Z,61.00
2023-02-16T06:17:49.677Z,60.90
2023-02-16T06:19:22.817Z,60.90
2023-02-16T06:20:58.828Z,60.90
2023-02-16T06:22:32.085Z,61.00
2023-02-16T06:24:07.880Z,61.00
2023-02-16T06:25:43.605Z,61.10
2023-02-16T06:27:16.825Z,61.10
2023-02-16T06:28:49.368Z,61.10
2023-02-16T06:30:22.741Z,61.30
2023-02-16T06:31:56.109Z,61.30
2023-02-16T06:33:29.469Z,61.40
2023-02-16T06:35:02.735Z,61.60
2023-02-16T06:36:36.007Z,61.70
2023-02-16T06:38:09.208Z,61.90
2023-02-16T06:39:43.679Z,61.90
2023-02-16T06:41:31.063Z,61.90
2023-02-16T06:43:04.392Z,61.90
2023-02-16T06:44:44.132Z,61.90
2023-02-16T06:46:17.420Z,61.90
2023-02-16T06:47:50.580Z,61.80
2023-02-16T06:49:43.691Z,61.60
2023-02-16T06:51:18.880Z,61.60
2023-02-16T06:52:51.923Z,61.60
2023-02-16T06:54:25.244Z,61.80
2023-02-16T06:55:59.696Z,61.60
2023-02-16T06:57:33.630Z,61.60
2023-02-16T06:59:07.651Z,61.70
2023-02-16T07:00:40.896Z,61.90
2023-02-16T07:02:14.162Z,61.90
2023-02-16T07:03:47.562Z,62.10
2023-02-16T07:05:40.923Z,62.20
2023-02-16T07:07:14.330Z,62.30
2023-02-16T07:08:47.537Z,62.30
2023-02-16T07:10:21.084Z,62.40
2023-02-16T07:11:55.669Z,62.40
2023-02-16T07:13:49.021Z,62.50
2023-02-16T07:15:22.131Z,62.70
2023-02-16T07:17:15.151Z,62.80
2023-02-16T07:19:08.493Z,62.90
2023-02-16T07:21:01.650Z,63.10
2023-02-16T07:22:35.238Z,63.20
2023-02-16T07:24:28.697Z,63.30
2023-02-16T07:26:01.942Z,63.50
2023-02-16T07:27:36.512Z,63.60
2023-02-16T07:29:09.772Z,63.80
2023-02-16T07:30:43.246Z,63.90
2023-02-16T07:32:36.332Z,64.00
2023-02-16T07:34:09.479Z,64.20
2023-02-16T07:35:42.883Z,64.30
2023-02-16T07:37:16.026Z,64.50
2023-02-16T07:39:09.162Z,64.70
2023-02-16T07:40:42.432Z,64.80
2023-02-16T07:42:15.661Z,64.90
2023-02-16T07:43:54.720Z,65.10
2023-02-16T07:45:28.176Z,65.10
2023-02-16T07:47:21.309Z,65.20
2023-02-16T07:48:54.486Z,65.30
2023-02-16T07:50:27.018Z,65.30
2023-02-16T07:52:00.152Z,65.40
2023-02-16T07:53:33.535Z,65.50
2023-02-16T07:55:07.632Z,65.60
2023-02-16T07:56:40.896Z,65.70
2023-02-16T07:58:27.005Z,65.60
2023-02-16T08:00:23.224Z,65.80
2023-02-16T08:01:56.536Z,65.80
2023-02-16T08:03:29.845Z,66.70
2023-02-16T08:05:03.292Z,65.80
2023-02-16T08:06:36.763Z,65.90
2023-02-16T08:08:09.886Z,66.00
2023-02-16T08:09:44.166Z,66.00
2023-02-16T08:11:20.496Z,66.10
2023-02-16T08:12:53.621Z,66.10
2023-02-16T08:14:47.573Z,66.20
2023-02-16T08:16:24.912Z,66.10
2023-02-16T08:17:58.762Z,66.10
2023-02-16T08:19:32.226Z,66.10
2023-02-16T08:21:14.814Z,66.00
2023-02-16T08:22:48.083Z,66.10
2023-02-16T08:24:21.249Z,66.00
2023-02-16T08:25:54.426Z,66.00
2023-02-16T08:27:47.505Z,66.10
2023-02-16T08:29:41.495Z,66.10
2023-02-16T08:31:14.412Z,66.20
2023-02-16T08:32:50.775Z,66.20
2023-02-16T08:34:25.587Z,66.20
2023-02-16T08:35:59.507Z,66.30
2023-02-16T08:37:33.372Z,66.50
2023-02-16T08:39:30.639Z,66.50
2023-02-16T08:41:04.168Z,66.70
2023-02-16T08:42:57.221Z,66.80
2023-02-16T08:44:30.533Z,66.90
2023-02-16T08:46:23.898Z,66.90
2023-02-16T08:48:18.469Z,67.00
2023-02-16T08:49:51.630Z,67.00
2023-02-16T08:51:25.437Z,67.10
2023-02-16T08:52:59.275Z,67.10
2023-02-16T08:54:33.337Z,67.10
2023-02-16T08:56:29.571Z,67.20
2023-02-16T08:58:23.581Z,67.20
2023-02-16T09:00:10.801Z,67.40
2023-02-16T09:01:44.754Z,67.40
2023-02-16T09:03:20.038Z,67.30
2023-02-16T09:04:53.313Z,67.50
2023-02-16T09:06:26.477Z,67.50
2023-02-16T09:07:59.660Z,67.60
2023-02-16T09:09:53.241Z,67.50
2023-02-16T09:11:26.558Z,67.50
2023-02-16T09:12:59.937Z,67.60
2023-02-16T09:14:55.586Z,67.60
2023-02-16T09:16:33.640Z,67.60
2023-02-16T09:18:09.257Z,67.70
2023-02-16T09:20:06.839Z,67.70
2023-02-16T09:21:59.955Z,67.80
2023-02-16T09:23:33.970Z,67.80
2023-02-16T09:25:08.905Z,67.80
2023-02-16T09:26:42.956Z,67.90
2023-02-16T09:28:16.183Z,67.90
2023-02-16T09:29:50.277Z,67.90
2023-02-16T09:31:28.613Z,68.00
2023-02-16T09:33:02.143Z,68.10
2023-02-16T09:34:35.504Z,68.30
2023-02-16T09:36:12.924Z,68.30
2023-02-16T09:38:07.609Z,68.60
2023-02-16T09:39:40.843Z,68.70
2023-02-16T09:41:28.701Z,68.70
2023-02-16T09:43:14.324Z,69.00
2023-02-16T09:44:59.535Z,69.20
2023-02-16T09:46:35.213Z,69.20
2023-02-16T09:48:25.170Z,69.30
2023-02-16T09:50:00.379Z,69.20
2023-02-16T09:51:40.963Z,69.00
2023-02-16T09:53:25.256Z,68.80
2023-02-16T09:55:00.853Z,68.70
2023-02-16T09:56:41.932Z,68.70
2023-02-16T09:58:22.741Z,68.80
2023-02-16T10:00:04.374Z,69.40
2023-02-16T10:02:00.382Z,69.70
2023-02-16T10:03:53.666Z,69.70
2023-02-16T10:05:33.682Z,70.40
2023-02-16T10:07:29.033Z,69.30
2023-02-16T10:09:11.371Z,69.00
2023-02-16T10:10:51.458Z,68.70
2023-02-16T10:12:30.156Z,68.20
2023-02-16T10:14:34.655Z,67.70
2023-02-16T10:16:17.051Z,67.30
2023-02-16T10:17:56.681Z,67.00
2023-02-16T10:19:39.328Z,67.00
2023-02-16T10:21:33.673Z,66.60
2023-02-16T10:23:23.013Z,66.30
2023-02-16T10:25:03.239Z,65.70
2023-02-16T10:27:07.436Z,65.50
2023-02-16T10:28:47.590Z,65.10
2023-02-16T10:30:23.964Z,64.70
2023-02-16T10:32:16.599Z,64.40
2023-02-16T10:34:11.797Z,64.10
2023-02-16T10:36:23.008Z,63.90
2023-02-16T10:38:08.040Z,63.80
2023-02-16T10:39:49.278Z,62.40
2023-02-16T10:41:33.774Z,62.10
2023-02-16T10:43:16.724Z,61.70
2023-02-16T10:45:00.820Z,61.50
2023-02-16T10:46:42.845Z,61.40
2023-02-16T10:48:36.063Z,61.30
2023-02-16T10:50:38.762Z,60.90
2023-02-16T10:52:12.811Z,60.50
2023-02-16T10:53:52.235Z,60.60
2023-02-16T10:55:25.803Z,60.40
2023-02-16T10:57:03.971Z,60.30
2023-02-16T10:58:42.356Z,60.10
2023-02-16T11:00:24.465Z,59.90
2023-02-16T11:02:23.193Z,59.70
2023-02-16T11:03:56.854Z,59.70
2023-02-16T11:05:37.931Z,59.60
2023-02-16T11:07:14.224Z,59.50
2023-02-16T11:08:54.138Z,59.30
2023-02-16T11:10:46.108Z,59.20
2023-02-16T11:12:28.710Z,59.10
2023-02-16T11:14:04.664Z,59.00
2023-02-16T11:15:40.608Z,58.90
2023-02-16T11:17:17.391Z,59.00
2023-02-16T11:19:00.764Z,58.90
2023-02-16T11:20:53.740Z,58.80
2023-02-16T11:22:35.177Z,58.60
2023-02-16T11:24:31.833Z,58.50
2023-02-16T11:26:08.960Z,58.50
2023-02-16T11:27:53.685Z,58.40
2023-02-16T11:29:46.872Z,58.30
2023-02-16T11:31:26.995Z,58.40
2023-02-16T11:33:03.047Z,58.20
2023-02-16T11:34:38.298Z,58.10
2023-02-16T11:36:34.088Z,57.90
2023-02-16T11:38:07.949Z,57.80
2023-02-16T11:39:50.549Z,58.00
2023-02-16T11:41:27.025Z,58.00
2023-02-16T11:43:03.198Z,57.90
2023-02-16T11:44:44.352Z,57.80
2023-02-16T11:46:21.368Z,57.80
2023-02-16T11:47:57.789Z,57.90
2023-02-16T11:49:34.452Z,58.00
2023-02-16T11:51:11.002Z,58.00
2023-02-16T11:52:47.006Z,58.00
2023-02-16T11:54:39.523Z,58.10
2023-02-16T11:56:22.887Z,58.10
2023-02-16T11:57:57.027Z,58.20
2023-02-16T11:59:36.461Z,58.20
2023-02-16T12:01:24.920Z,58.20
2023-02-16T12:03:22.624Z,58.10
2023-02-16T12:05:24.873Z,58.10
2023-02-16T12:07:18.132Z,58.10
2023-02-16T12:09:08.851Z,58.10
2023-02-16T12:10:57.587Z,57.90
2023-02-16T12:12:42.857Z,57.80
2023-02-16T12:14:36.853Z,57.70
2023-02-16T12:16:28.067Z,58.30
2023-02-16T12:18:19.299Z,57.60
2023-02-16T12:20:03.721Z,57.70
2023-02-16T12:21:45.340Z,57.60
2023-02-16T12:23:38.151Z,57.70
2023-02-16T12:25:32.008Z,57.40
2023-02-16T12:27:16.731Z,57.20
2023-02-16T12:29:08.352Z,57.30
2023-02-16T12:30:57.226Z,57.20
2023-02-16T12:32:54.256Z,57.00
2023-02-16T12:34:41.104Z,57.00
2023-02-16T12:36:53.512Z,57.10
2023-02-16T12:38:48.926Z,57.00
2023-02-16T12:40:44.952Z,57.20
2023-02-16T12:42:50.838Z,57.20
2023-02-16T12:44:42.654Z,57.10
2023-02-16T12:46:24.158Z,57.20
2023-02-16T12:48:02.611Z,57.20
2023-02-16T12:49:52.960Z,57.20
2023-02-16T12:51:36.390Z,56.80
2023-02-16T12:53:21.960Z,56.70
2023-02-16T12:55:04.449Z,56.70
2023-02-16T12:56:46.642Z,56.60
2023-02-16T12:58:27.337Z,56.60
2023-02-16T13:00:11.325Z,56.60
2023-02-16T13:01:47.382Z,56.50
2023-02-16T13:03:37.089Z,56.60
2023-02-16T13:05:19.009Z,56.50
2023-02-16T13:07:01.763Z,56.60
2023-02-16T13:08:43.493Z,56.60
2023-02-16T13:10:25.445Z,56.60
2023-02-16T13:12:11.515Z,56.60
2023-02-16T13:13:48.613Z,56.50
2023-02-16T13:15:32.167Z,56.60
2023-02-16T13:17:16.381Z,56.50
2023-02-16T13:18:56.151Z,56.40
2023-02-16T13:20:30.464Z,56.30
2023-02-16T13:23:11.891Z,56.20
2023-02-16T13:25:17.281Z,55.80
2023-02-16T13:27:16.325Z,55.80
2023-02-16T13:29:23.601Z,56.00
2023-02-16T13:31:29.454Z,55.90
2023-02-16T13:33:37.827Z,55.80
2023-02-16T13:35:37.567Z,55.80
2023-02-16T13:37:43.830Z,56.40
2023-02-16T13:39:47.733Z,55.60
2023-02-16T13:41:55.669Z,55.70
2023-02-16T13:43:35.867Z,55.60
2023-02-16T13:45:27.112Z,55.70
2023-02-16T13:47:05.110Z,55.50
2023-02-16T13:48:46.934Z,55.60
2023-02-16T13:50:32.029Z,55.70
2023-02-16T13:52:08.262Z,55.60
2023-02-16T13:53:47.617Z,55.60
2023-02-16T13:55:28.431Z,55.60
2023-02-16T13:57:04.083Z,55.70
2023-02-16T13:58:40.617Z,55.70
2023-02-16T14:00:31.285Z,55.60
2023-02-16T14:02:12.018Z,55.60
2023-02-16T14:03:45.268Z,55.80
2023-02-16T14:05:28.698Z,55.80
2023-02-16T14:07:35.872Z,55.80
2023-02-16T14:09:48.648Z,55.80
2023-02-16T14:11:21.764Z,55.80
2023-02-16T14:12:54.968Z,55.80
2023-02-16T14:14:33.094Z,55.80
2023-02-16T14:16:12.375Z,55.80
2023-02-16T14:17:47.192Z,55.80
2023-02-16T14:19:27.774Z,55.80
2023-02-16T14:21:07.072Z,55.80
2023-02-16T14:22:49.911Z,55.80
2023-02-16T14:24:33.706Z,55.80
2023-02-16T14:26:10.074Z,55.50
2023-02-16T14:27:49.828Z,55.50
2023-02-16T14:29:30.741Z,55.60
2023-02-16T14:31:13.396Z,55.60
2023-02-16T14:32:53.521Z,55.60
2023-02-16T14:34:32.732Z,55.40
2023-02-16T14:36:15.623Z,55.50
2023-02-16T14:37:57.826Z,55.40
2023-02-16T14:39:31.274Z,55.40
2023-02-16T14:41:08.734Z,55.40
2023-02-16T14:42:55.229Z,55.40
2023-02-16T14:44:55.368Z,55.30
2023-02-16T14:46:47.176Z,55.30
2023-02-16T14:48:51.537Z,55.30
2023-02-16T14:50:54.126Z,55.30
2023-02-16T14:53:18.418Z,55.20
2023-02-16T14:55:26.161Z,55.00
2023-02-16T14:57:06.863Z,55.00
2023-02-16T14:58:55.507Z,55.00
2023-02-16T15:00:45.799Z,55.00
2023-02-16T15:02:32.807Z,55.00
2023-02-16T15:04:05.896Z,55.00
2023-02-16T15:05:39.672Z,55.00
2023-02-16T15:07:12.790Z,55.00
2023-02-16T15:08:56.900Z,55.00
2023-02-16T15:10:30.590Z,55.00
2023-02-16T15:12:24.622Z,55.10
2023-02-16T15:14:07.757Z,55.00
2023-02-16T15:15:49.913Z,55.00
2023-02-16T15:17:32.684Z,55.10
2023-02-16T15:19:18.059Z,55.00
2023-02-16T15:20:54.940Z,55.00
2023-02-16T15:22:28.672Z,55.10
2023-02-16T15:24:03.808Z,55.00
2023-02-16T15:25:39.628Z,55.10
2023-02-16T15:27:23.357Z,55.20
2023-02-16T15:29:00.134Z,55.10
2023-02-16T15:30:35.618Z,55.20
2023-02-16T15:32:11.135Z,55.20
2023-02-16T15:33:55.530Z,55.10
2023-02-16T15:35:35.794Z,55.10
2023-02-16T15:37:26.770Z,55.10
2023-02-16T15:39:03.132Z,55.00
2023-02-16T15:40:37.670Z,55.10
2023-02-16T15:42:21.922Z,55.10
2023-02-16T15:43:55.446Z,55.10
2023-02-16T15:45:35.178Z,55.10
2023-02-16T15:47:15.953Z,55.10
2023-02-16T15:48:50.436Z,55.10
2023-02-16T15:50:26.751Z,55.20
2023-02-16T15:52:01.158Z,55.00
2023-02-16T15:53:48.036Z,55.00
2023-02-16T15:55:22.468Z,55.10
2023-02-16T15:56:59.653Z,55.10
2023-02-16T15:58:34.125Z,55.20
2023-02-16T16:00:19.233Z,55.30
2023-02-16T16:02:00.448Z,55.30
2023-02-16T16:03:35.207Z,55.10
2023-02-16T16:05:24.980Z,55.10
2023-02-16T16:07:00.207Z,55.00
2023-02-16T16:08:33.983Z,55.00
2023-02-16T16:10:17.835Z,54.90
2023-02-16T16:11:53.652Z,54.70
2023-02-16T16:13:31.229Z,54.70
2023-02-16T16:15:06.508Z,54.70
2023-02-16T16:16:39.640Z,54.70
2023-02-16T16:18:44.090Z,54.60
2023-02-16T16:20:30.409Z,54.70
2023-02-16T16:22:05.172Z,54.80
2023-02-16T16:23:38.291Z,54.70
2023-02-16T16:25:39.835Z,54.70
2023-02-16T16:27:14.635Z,54.60
2023-02-16T16:28:48.146Z,54.60
2023-02-16T16:30:30.984Z,54.70
2023-02-16T16:32:07.296Z,54.80
2023-02-16T16:33:57.610Z,54.90
2023-02-16T16:35:41.140Z,54.90
2023-02-16T16:37:29.718Z,54.80
2023-02-16T16:39:27.287Z,54.80
2023-02-16T16:41:04.523Z,54.90
2023-02-16T16:42:40.012Z,54.80
2023-02-16T16:44:32.887Z,54.90
2023-02-16T16:46:21.095Z,54.90
2023-02-16T16:48:02.878Z,55.00
2023-02-16T16:49:37.440Z,54.90
2023-02-16T16:51:14.793Z,54.80
2023-02-16T16:52:50.207Z,54.90
2023-02-16T16:54:35.703Z,54.90
2023-02-16T16:56:15.596Z,55.00
2023-02-16T16:57:51.161Z,55.10
2023-02-16T16:59:24.511Z,55.00
2023-02-16T17:00:57.788Z,55.10
2023-02-16T17:02:30.956Z,55.40
2023-02-16T17:04:04.245Z,55.00
2023-02-16T17:05:39.990Z,55.00
2023-02-16T17:07:13.930Z,55.20
2023-02-16T17:08:48.688Z,55.20
2023-02-16T17:10:23.297Z,55.30
2023-02-16T17:11:56.562Z,55.30
2023-02-16T17:13:29.779Z,55.40
2023-02-16T17:15:05.712Z,55.50
2023-02-16T17:16:42.690Z,55.50
2023-02-16T17:18:19.824Z,55.70
2023-02-16T17:19:53.117Z,55.60
2023-02-16T17:21:28.769Z,55.70
2023-02-16T17:23:04.548Z,55.70
2023-02-16T17:24:37.803Z,56.40
2023-02-16T17:26:12.131Z,55.90
2023-02-16T17:27:45.419Z,55.90
2023-02-16T17:29:18.718Z,56.00
2023-02-16T17:30:51.850Z,56.10
2023-02-16T17:32:25.195Z,56.00
2023-02-16T17:33:58.520Z,56.00
2023-02-16T17:35:32.565Z,56.00
2023-02-16T17:37:08.288Z,56.10
2023-02-16T17:38:41.553Z,56.20
2023-02-16T17:40:19.374Z,56.10
2023-02-16T17:41:52.853Z,56.30
2023-02-16T17:43:28.402Z,56.40
2023-02-16T17:45:01.615Z,56.40
2023-02-16T17:46:34.759Z,56.40
2023-02-16T17:48:19.018Z,56.40
2023-02-16T17:49:52.200Z,56.60
2023-02-16T17:51:27.277Z,56.60
2023-02-16T17:53:02.004Z,56.60
2023-02-16T17:54:40.453Z,56.70
2023-02-16T17:56:15.797Z,56.80
2023-02-16T17:57:48.885Z,56.80
2023-02-16T17:59:22.057Z,56.80
2023-02-16T18:00:55.209Z,56.90
2023-02-16T18:02:28.399Z,57.00
2023-02-16T18:04:03.031Z,57.10
2023-02-16T18:05:37.698Z,57.20
2023-02-16T18:07:13.698Z,57.20
2023-02-16T18:08:48.652Z,57.20
2023-02-16T18:10:33.051Z,57.40
2023-02-16T18:12:07.471Z,57.60
2023-02-16T18:13:41.696Z,57.30
2023-02-16T18:15:15.731Z,57.40
2023-02-16T18:16:53.110Z,57.40
2023-02-16T18:18:26.337Z,57.60
2023-02-16T18:19:59.777Z,57.70
2023-02-16T18:21:33.008Z,57.70
2023-02-16T18:23:06.776Z,57.70
2023-02-16T18:24:42.778Z,57.70
2023-02-16T18:26:18.259Z,57.80
2023-02-16T18:27:54.692Z,57.80
2023-02-16T18:29:28.598Z,57.80
2023-02-16T18:31:08.130Z,57.90
2023-02-16T18:32:42.342Z,58.00
2023-02-16T18:34:15.977Z,57.90
2023-02-16T18:35:49.542Z,58.00
2023-02-16T18:37:22.808Z,58.10
2023-02-16T18:38:56.134Z,58.20
2023-02-16T18:40:35.101Z,58.30
2023-02-16T18:42:13.489Z,58.30
2023-02-16T18:43:46.698Z,58.50
2023-02-16T18:45:20.066Z,58.50
2023-02-16T18:46:53.276Z,58.60
2023-02-16T18:48:26.400Z,58.60
2023-02-16T18:49:59.912Z,58.70
2023-02-16T18:51:33.654Z,58.70
2023-02-16T18:53:08.049Z,58.80
2023-02-16T18:54:41.445Z,58.90
2023-02-16T18:56:16.243Z,58.90
2023-02-16T18:57:49.342Z,58.90
2023-02-16T18:59:22.467Z,58.90
2023-02-16T19:00:56.729Z,58.90
2023-02-16T19:02:30.132Z,59.00
2023-02-16T19:04:05.532Z,59.00
2023-02-16T19:05:39.500Z,59.00
2023-02-16T19:07:12.681Z,59.10
2023-02-16T19:08:47.406Z,59.10
2023-02-16T19:10:20.743Z,59.10
2023-02-16T19:11:56.755Z,59.10
2023-02-16T19:13:30.820Z,59.10
2023-02-16T19:15:04.632Z,59.10
2023-02-16T19:16:38.689Z,59.10
2023-02-16T19:18:11.837Z,59.00
2023-02-16T19:19:45.811Z,59.00
2023-02-16T19:21:19.029Z,59.00
2023-02-16T19:22:52.611Z,58.90
2023-02-16T19:24:26.807Z,59.00
2023-02-16T19:26:00.103Z,59.00
2023-02-16T19:27:35.584Z,59.00
2023-02-16T19:29:08.840Z,59.00
2023-02-16T19:30:42.030Z,59.00
2023-02-16T19:32:15.744Z,59.00
2023-02-16T19:33:50.203Z,59.10
2023-02-16T19:35:23.429Z,59.20
2023-02-16T19:36:56.592Z,59.20
2023-02-16T19:38:30.455Z,59.20
2023-02-16T19:40:03.837Z,59.30
2023-02-16T19:41:44.482Z,59.30
2023-02-16T19:43:19.119Z,59.40
2023-02-16T19:45:04.919Z,59.40
2023-02-16T19:46:38.490Z,59.60
2023-02-16T19:48:12.754Z,59.60
2023-02-16T19:49:46.206Z,59.60
2023-02-16T19:51:19.815Z,59.70
2023-02-16T19:52:53.357Z,59.80
2023-02-16T19:54:26.559Z,59.80
2023-02-16T19:56:00.050Z,59.90
2023-02-16T19:57:33.794Z,60.00
2023-02-16T19:59:09.725Z,60.10
2023-02-16T20:00:43.665Z,60.20
2023-02-16T20:02:18.300Z,60.30
2023-02-16T20:03:53.317Z,60.30
2023-02-16T20:05:26.608Z,60.50
2023-02-16T20:07:05.054Z,60.40
2023-02-16T20:08:38.576Z,60.60
2023-02-16T20:10:11.892Z,60.60
2023-02-16T20:11:45.472Z,60.60
2023-02-16T20:13:19.745Z,60.60
2023-02-16T20:14:54.349Z,60.60
2023-02-16T20:16:28.579Z,60.60
2023-02-16T20:18:02.823Z,60.70
2023-02-16T20:19:35.963Z,60.70
2023-02-16T20:21:13.003Z,60.60
2023-02-16T20:22:47.564Z,60.90
2023-02-16T20:24:20.825Z,61.10
2023-02-16T20:25:53.980Z,61.40
2023-02-16T20:27:28.474Z,61.40
2023-02-16T20:29:02.122Z,61.70
2023-02-16T20:30:36.734Z,61.90
2023-02-16T20:32:10.814Z,62.00
2023-02-16T20:33:47.859Z,62.00
2023-02-16T20:35:21.289Z,62.00
2023-02-16T20:36:54.983Z,62.20
2023-02-16T20:38:29.829Z,62.40
2023-02-16T20:40:03.291Z,62.50
2023-02-16T20:41:37.845Z,62.50
2023-02-16T20:43:11.574Z,62.70
2023-02-16T20:44:49.623Z,62.80
2023-02-16T20:46:26.208Z,62.80
2023-02-16T20:47:59.508Z,62.90
2023-02-16T20:49:34.185Z,62.90
2023-02-16T20:51:08.620Z,63.00
2023-02-16T20:52:41.764Z,63.10
2023-02-16T20:54:15.139Z,63.20
2023-02-16T20:55:48.330Z,63.40
2023-02-16T20:57:27.092Z,63.40
2023-02-16T20:59:01.340Z,63.50
2023-02-16T21:00:34.497Z,63.60
2023-02-16T21:02:11.477Z,63.70
2023-02-16T21:03:44.895Z,63.80
2023-02-16T21:05:18.640Z,63.80
2023-02-16T21:06:52.640Z,63.80
2023-02-16T21:08:25.824Z,63.80
2023-02-16T21:09:59.701Z,63.90
2023-02-16T21:11:33.130Z,63.90
2023-02-16T21:13:06.333Z,64.10
2023-02-16T21:14:39.475Z,64.10
2023-02-16T21:16:14.641Z,64.10
2023-02-16T21:17:49.300Z,64.10
2023-02-16T21:19:23.587Z,64.10
2023-02-16T21:20:57.597Z,64.10
2023-02-16T21:22:30.821Z,64.10
2023-02-16T21:24:04.132Z,64.20